createdAt,value
2023-02-02T00:00:36.723Z,1012.27
2023-02-02T00:01:36.704Z,1012.23
2023-02-02T00:02:36.714Z,1012.16
2023-02-02T00:03:36.702Z,1012.24
2023-02-02T00:04:36.671Z,1012.28
2023-02-02T00:05:36.659Z,1012.24
2023-02-02T00:06:36.644Z,1012.25
2023-02-02T00:07:36.636Z,1012.26
2023-02-02T00:08:36.615Z,1012.27
2023-02-02T00:09:36.615Z,1012.29
2023-02-02T00:10:36.591Z,1012.24
2023-02-02T00:11:36.597Z,1012.25
2023-02-02T00:12:37.275Z,1012.23
2023-02-02T00:13:36.572Z,1012.26
2023-02-02T00:14:36.550Z,1012.22
2023-02-02T00:15:36.545Z,1012.27
2023-02-02T00:16:36.617Z,1012.26
2023-02-02T00:17:36.521Z,1012.27
2023-02-02T00:18:36.502Z,1012.22
2023-02-02T00:19:36.506Z,1012.23
2023-02-02T00:20:36.480Z,1012.24
2023-02-02T00:21:36.516Z,1012.31
2023-02-02T00:22:36.461Z,1012.30
2023-02-02T00:23:36.490Z,1012.26
2023-02-02T00:24:36.439Z,1012.24
2023-02-02T00:25:36.438Z,1012.24
2023-02-02T00:26:36.497Z,1012.27
2023-02-02T00:27:36.411Z,1012.26
2023-02-02T00:28:36.398Z,1012.24
2023-02-02T00:29:36.387Z,1012.26
2023-02-02T00:30:36.413Z,1012.26
2023-02-02T00:31:36.470Z,1012.29
2023-02-02T00:32:36.353Z,1012.29
2023-02-02T00:33:36.350Z,1012.23
2023-02-02T00:34:36.330Z,1012.26
2023-02-02T00:35:36.325Z,1012.32
2023-02-02T00:36:36.314Z,1012.32
2023-02-02T00:37:36.298Z,1012.29
2023-02-02T00:38:36.286Z,1012.26
2023-02-02T00:39:36.289Z,1012.33
2023-02-02T00:40:36.271Z,1012.23
2023-02-02T00:41:36.266Z,1012.34
2023-02-02T00:42:36.257Z,1012.27
2023-02-02T00:43:36.238Z,1012.22
2023-02-02T00:44:36.224Z,1012.25
2023-02-02T00:45:36.250Z,1012.29
2023-02-02T00:46:36.210Z,1012.29
2023-02-02T00:47:36.192Z,1012.29
2023-02-02T00:48:36.185Z,1012.28
2023-02-02T00:49:36.176Z,1012.23
2023-02-02T00:50:36.170Z,1012.20
2023-02-02T00:51:36.151Z,1012.24
2023-02-02T00:52:36.142Z,1012.25
2023-02-02T00:53:36.131Z,1012.25
2023-02-02T00:54:36.145Z,1012.26
2023-02-02T00:55:36.101Z,1012.30
2023-02-02T00:56:36.099Z,1012.32
2023-02-02T00:57:36.075Z,1012.30
2023-02-02T00:58:36.078Z,1012.37
2023-02-02T00:59:36.054Z,1012.33
2023-02-02T01:00:36.047Z,1012.36
2023-02-02T01:01:36.062Z,1012.38
2023-02-02T01:02:36.029Z,1012.37
2023-02-02T01:03:36.013Z,1012.31
2023-02-02T01:04:36.014Z,1012.32
2023-02-02T01:05:36.015Z,1012.38
2023-02-02T01:06:35.990Z,1012.38
2023-02-02T01:07:35.975Z,1012.42
2023-02-02T01:08:35.959Z,1012.42
2023-02-02T01:09:35.946Z,1012.48
2023-02-02T01:10:35.943Z,1012.42
2023-02-02T01:11:35.923Z,1012.48
2023-02-02T01:12:35.933Z,1012.42
2023-02-02T01:13:35.900Z,1012.50
2023-02-02T01:14:35.908Z,1012.47
2023-02-02T01:15:35.880Z,1012.49
2023-02-02T01:16:35.918Z,1012.43
2023-02-02T01:17:35.872Z,1012.42
2023-02-02T01:18:35.847Z,1012.50
2023-02-02T01:19:35.832Z,1012.49
2023-02-02T01:20:35.828Z,1012.47
2023-02-02T01:21:36.456Z,1012.46
2023-02-02T01:22:35.823Z,1012.47
2023-02-02T01:23:35.787Z,1012.51
2023-02-02T01:24:35.778Z,1012.53
2023-02-02T01:25:35.768Z,1012.56
2023-02-02T01:26:35.813Z,1012.50
2023-02-02T01:27:35.755Z,1012.56
2023-02-02T01:28:35.740Z,1012.48
2023-02-02T01:29:35.720Z,1012.50
2023-02-02T01:30:35.734Z,1012.55
2023-02-02T01:31:35.785Z,1012.58
2023-02-02T01:32:35.704Z,1012.59
2023-02-02T01:33:35.677Z,1012.60
2023-02-02T01:34:35.679Z,1012.63
2023-02-02T01:35:35.659Z,1012.60
2023-02-02T01:36:35.654Z,1012.66
2023-02-02T01:37:35.644Z,1012.67
2023-02-02T01:38:35.628Z,1012.64
2023-02-02T01:39:35.610Z,1012.68
2023-02-02T01:40:35.605Z,1012.66
2023-02-02T01:41:35.588Z,1012.72
2023-02-02T01:42:35.593Z,1012.71
2023-02-02T01:43:35.568Z,1012.71
2023-02-02T01:44:35.563Z,1012.73
2023-02-02T01:45:35.570Z,1012.66
2023-02-02T01:46:35.540Z,1012.74
2023-02-02T01:47:35.537Z,1012.74
2023-02-02T01:48:35.921Z,1012.67
2023-02-02T01:49:35.502Z,1012.74
2023-02-02T01:50:35.495Z,1012.72
2023-02-02T01:51:35.489Z,1012.70
2023-02-02T01:52:35.483Z,1012.77
2023-02-02T01:53:35.457Z,1012.75
2023-02-02T01:54:35.722Z,1012.71
2023-02-02T01:55:35.437Z,1012.71
2023-02-02T01:56:35.429Z,1012.77
2023-02-02T01:57:35.424Z,1012.81
2023-02-02T01:58:35.412Z,1012.80
2023-02-02T01:59:35.389Z,1012.84
2023-02-02T02:00:35.382Z,1012.85
2023-02-02T02:01:35.387Z,1012.82
2023-02-02T02:02:35.417Z,1012.87
2023-02-02T02:03:35.352Z,1012.86
2023-02-02T02:04:35.346Z,1012.85
2023-02-02T02:05:35.323Z,1012.87
2023-02-02T02:06:35.324Z,1012.87
2023-02-02T02:07:35.311Z,1012.82
2023-02-02T02:08:35.295Z,1012.89
2023-02-02T02:09:35.279Z,1012.90
2023-02-02T02:10:35.271Z,1012.91
2023-02-02T02:11:35.258Z,1012.88
2023-02-02T02:12:35.262Z,1012.91
2023-02-02T02:13:35.240Z,1012.86
2023-02-02T02:14:35.237Z,1012.86
2023-02-02T02:15:35.213Z,1012.86
2023-02-02T02:16:35.272Z,1012.91
2023-02-02T02:17:35.199Z,1012.92
2023-02-02T02:18:35.185Z,1012.89
2023-02-02T02:19:35.171Z,1012.87
2023-02-02T02:20:35.165Z,1012.91
2023-02-02T02:21:35.148Z,1012.88
2023-02-02T02:22:35.150Z,1012.87
2023-02-02T02:23:35.124Z,1012.82
2023-02-02T02:24:35.137Z,1012.82
2023-02-02T02:25:35.168Z,1012.82
2023-02-02T02:26:35.182Z,1012.84
2023-02-02T02:27:35.106Z,1012.87
2023-02-02T02:28:35.254Z,1012.85
2023-02-02T02:29:35.060Z,1012.92
2023-02-02T02:30:35.175Z,1012.93
2023-02-02T02:31:35.180Z,1012.92
2023-02-02T02:32:35.033Z,1012.93
2023-02-02T02:33:35.024Z,1012.87
2023-02-02T02:34:35.010Z,1012.87
2023-02-02T02:35:34.992Z,1012.91
2023-02-02T02:36:34.985Z,1012.96
2023-02-02T02:37:34.972Z,1012.99
2023-02-02T02:38:34.974Z,1012.97
2023-02-02T02:39:34.948Z,1012.95
2023-02-02T02:40:34.945Z,1012.97
2023-02-02T02:41:34.927Z,1012.97
2023-02-02T02:42:34.928Z,1013.00
2023-02-02T02:43:34.918Z,1013.03
2023-02-02T02:44:34.898Z,1013.04
2023-02-02T02:45:34.888Z,1012.98
2023-02-02T02:46:34.876Z,1012.98
2023-02-02T02:47:34.872Z,1012.98
2023-02-02T02:48:34.874Z,1012.96
2023-02-02T02:49:34.839Z,1012.94
2023-02-02T02:50:34.832Z,1012.92
2023-02-02T02:51:34.817Z,1012.91
2023-02-02T02:52:34.973Z,1012.95
2023-02-02T02:53:34.822Z,1012.95
2023-02-02T02:54:34.793Z,1012.95
2023-02-02T02:55:34.775Z,1012.96
2023-02-02T02:56:34.768Z,1012.94
2023-02-02T02:57:34.758Z,1012.95
2023-02-02T02:58:34.757Z,1012.94
2023-02-02T02:59:34.735Z,1012.97
2023-02-02T03:00:34.724Z,1012.97
2023-02-02T03:01:34.827Z,1013.00
2023-02-02T03:02:34.721Z,1012.97
2023-02-02T03:03:34.695Z,1012.96
2023-02-02T03:04:34.680Z,1012.97
2023-02-02T03:05:34.671Z,1012.98
2023-02-02T03:06:34.651Z,1012.94
2023-02-02T03:07:34.653Z,1013.00
2023-02-02T03:08:34.640Z,1012.98
2023-02-02T03:09:34.625Z,1012.99
2023-02-02T03:10:34.608Z,1012.98
2023-02-02T03:11:34.602Z,1012.97
2023-02-02T03:12:34.593Z,1012.95
2023-02-02T03:13:34.590Z,1012.98
2023-02-02T03:14:34.565Z,1012.97
2023-02-02T03:15:34.595Z,1012.95
2023-02-02T03:16:34.545Z,1012.96
2023-02-02T03:17:34.535Z,1012.94
2023-02-02T03:18:34.530Z,1012.94
2023-02-02T03:19:34.794Z,1012.91
2023-02-02T03:20:34.496Z,1012.88
2023-02-02T03:21:34.495Z,1012.92
2023-02-02T03:22:34.475Z,1012.92
2023-02-02T03:23:34.490Z,1012.90
2023-02-02T03:24:34.456Z,1012.89
2023-02-02T03:25:34.446Z,1012.89
2023-02-02T03:26:34.464Z,1012.85
2023-02-02T03:27:34.427Z,1012.88
2023-02-02T03:28:34.423Z,1012.90
2023-02-02T03:29:34.405Z,1012.84
2023-02-02T03:30:34.432Z,1012.83
2023-02-02T03:31:34.402Z,1012.79
2023-02-02T03:32:34.369Z,1012.80
2023-02-02T03:33:34.379Z,1012.80
2023-02-02T03:34:34.353Z,1012.80
2023-02-02T03:35:34.337Z,1012.85
2023-02-02T03:36:34.330Z,1012.89
2023-02-02T03:37:34.319Z,1012.88
2023-02-02T03:38:34.299Z,1012.94
2023-02-02T03:39:34.303Z,1012.90
2023-02-02T03:40:34.278Z,1012.93
2023-02-02T03:41:34.271Z,1012.94
2023-02-02T03:42:34.256Z,1012.93
2023-02-02T03:43:34.257Z,1012.94
2023-02-02T03:44:34.296Z,1012.90
2023-02-02T03:45:34.231Z,1012.92
2023-02-02T03:46:34.268Z,1012.99
2023-02-02T03:47:34.207Z,1012.93
2023-02-02T03:48:34.189Z,1012.94
2023-02-02T03:49:34.321Z,1012.96
2023-02-02T03:50:34.167Z,1012.90
2023-02-02T03:51:34.185Z,1012.90
2023-02-02T03:52:34.147Z,1012.91
2023-02-02T03:53:34.142Z,1012.90
2023-02-02T03:54:34.138Z,1012.98
2023-02-02T03:55:34.117Z,1012.89
2023-02-02T03:56:34.107Z,1012.93
2023-02-02T03:57:34.098Z,1012.90
2023-02-02T03:58:34.084Z,1012.93
2023-02-02T03:59:34.085Z,1012.93
2023-02-02T04:00:34.059Z,1012.95
2023-02-02T04:01:34.101Z,1012.95
2023-02-02T04:02:34.092Z,1013.01
2023-02-02T04:03:34.036Z,1013.03
2023-02-02T04:04:34.029Z,1013.01
2023-02-02T04:05:34.021Z,1013.03
2023-02-02T04:06:33.998Z,1013.00
2023-02-02T04:07:33.991Z,1013.00
2023-02-02T04:08:33.990Z,1012.95
2023-02-02T04:09:33.981Z,1012.97
2023-02-02T04:10:33.950Z,1012.91
2023-02-02T04:11:33.966Z,1012.91
2023-02-02T04:12:33.939Z,1012.90
2023-02-02T04:13:33.925Z,1012.96
2023-02-02T04:14:33.916Z,1012.95
2023-02-02T04:15:33.903Z,1012.96
2023-02-02T04:16:33.948Z,1012.96
2023-02-02T04:17:33.879Z,1012.95
2023-02-02T04:18:33.906Z,1012.96
2023-02-02T04:19:33.872Z,1012.91
2023-02-02T04:20:33.842Z,1012.97
2023-02-02T04:21:33.841Z,1012.98
2023-02-02T04:22:33.822Z,1012.99
2023-02-02T04:23:33.812Z,1013.02
2023-02-02T04:24:37.108Z,1013.01
2023-02-02T04:25:33.809Z,1013.03
2023-02-02T04:26:33.798Z,1013.02
2023-02-02T04:27:33.771Z,1013.03
2023-02-02T04:28:33.765Z,1013.05
2023-02-02T04:29:33.750Z,1013.10
2023-02-02T04:30:33.921Z,1013.13
2023-02-02T04:31:33.765Z,1013.07
2023-02-02T04:32:33.712Z,1013.13
2023-02-02T04:33:33.707Z,1013.13
2023-02-02T04:34:33.688Z,1013.16
2023-02-02T04:35:33.691Z,1013.13
2023-02-02T04:36:33.667Z,1013.09
2023-02-02T04:37:33.664Z,1013.09
2023-02-02T04:38:33.645Z,1013.04
2023-02-02T04:39:33.641Z,1013.02
2023-02-02T04:40:33.633Z,1013.03
2023-02-02T04:41:33.624Z,1013.07
2023-02-02T04:42:33.602Z,1013.05
2023-02-02T04:43:33.594Z,1013.02
2023-02-02T04:44:33.584Z,1013.05
2023-02-02T04:45:33.617Z,1013.05
2023-02-02T04:46:33.562Z,1012.99
2023-02-02T04:47:33.555Z,1013.02
2023-02-02T04:48:33.547Z,1013.06
2023-02-02T04:49:33.533Z,1013.03
2023-02-02T04:50:33.527Z,1013.06
2023-02-02T04:51:33.513Z,1013.01
2023-02-02T04:52:33.492Z,1013.04
2023-02-02T04:53:33.500Z,1013.04
2023-02-02T04:54:33.471Z,1013.06
2023-02-02T04:55:33.473Z,1013.08
2023-02-02T04:56:33.455Z,1013.04
2023-02-02T04:57:33.444Z,1013.03
2023-02-02T04:58:33.426Z,1013.05
2023-02-02T04:59:33.423Z,1013.08
2023-02-02T05:00:33.476Z,1013.08
2023-02-02T05:01:33.405Z,1013.04
2023-02-02T05:02:33.402Z,1013.04
2023-02-02T05:03:33.377Z,1013.11
2023-02-02T05:04:33.384Z,1013.09
2023-02-02T05:05:33.368Z,1013.09
2023-02-02T05:06:33.343Z,1013.08
2023-02-02T05:07:33.337Z,1013.09
2023-02-02T05:08:33.326Z,1013.13
2023-02-02T05:09:33.306Z,1013.12
2023-02-02T05:10:33.320Z,1013.11
2023-02-02T05:11:33.285Z,1013.06
2023-02-02T05:12:33.282Z,1013.06
2023-02-02T05:13:33.269Z,1013.09
2023-02-02T05:14:33.257Z,1013.08
2023-02-02T05:15:33.256Z,1013.04
2023-02-02T05:16:33.255Z,1013.05
2023-02-02T05:17:33.243Z,1013.08
2023-02-02T05:18:33.227Z,1013.15
2023-02-02T05:19:33.221Z,1013.15
2023-02-02T05:20:33.202Z,1013.16
2023-02-02T05:21:33.180Z,1013.15
2023-02-02T05:22:33.179Z,1013.16
2023-02-02T05:23:33.164Z,1013.18
2023-02-02T05:24:33.155Z,1013.15
2023-02-02T05:25:33.145Z,1013.18
2023-02-02T05:26:33.136Z,1013.17
2023-02-02T05:27:33.121Z,1013.16
2023-02-02T05:28:33.105Z,1013.21
2023-02-02T05:29:33.097Z,1013.17
2023-02-02T05:30:33.804Z,1013.17
2023-02-02T05:31:33.226Z,1013.11
2023-02-02T05:32:33.063Z,1013.12
2023-02-02T05:33:33.048Z,1013.13
2023-02-02T05:34:33.045Z,1013.13
2023-02-02T05:35:33.041Z,1013.20
2023-02-02T05:36:33.024Z,1013.17
2023-02-02T05:37:33.005Z,1013.20
2023-02-02T05:38:33.001Z,1013.22
2023-02-02T05:39:32.984Z,1013.23
2023-02-02T05:40:32.995Z,1013.24
2023-02-02T05:41:32.959Z,1013.24
2023-02-02T05:42:32.953Z,1013.26
2023-02-02T05:43:32.939Z,1013.21
2023-02-02T05:44:32.940Z,1013.24
2023-02-02T05:45:33.094Z,1013.21
2023-02-02T05:46:32.926Z,1013.25
2023-02-02T05:47:32.907Z,1013.22
2023-02-02T05:48:32.887Z,1013.22
2023-02-02T05:49:32.876Z,1013.26
2023-02-02T05:50:32.879Z,1013.22
2023-02-02T05:51:32.851Z,1013.16
2023-02-02T05:52:32.846Z,1013.19
2023-02-02T05:53:32.840Z,1013.26
2023-02-02T05:54:32.826Z,1013.25
2023-02-02T05:55:32.820Z,1013.26
2023-02-02T05:56:32.808Z,1013.28
2023-02-02T05:57:32.784Z,1013.25
2023-02-02T05:58:32.781Z,1013.29
2023-02-02T05:59:32.776Z,1013.25
2023-02-02T06:00:32.756Z,1013.29
2023-02-02T06:01:32.769Z,1013.31
2023-02-02T06:02:32.737Z,1013.41
2023-02-02T06:03:32.905Z,1013.31
2023-02-02T06:04:32.714Z,1013.40
2023-02-02T06:05:32.698Z,1013.39
2023-02-02T06:06:32.699Z,1013.42
2023-02-02T06:07:32.684Z,1013.40
2023-02-02T06:08:32.668Z,1013.41
2023-02-02T06:09:32.660Z,1013.45
2023-02-02T06:10:32.650Z,1013.47
2023-02-02T06:11:32.653Z,1013.50
2023-02-02T06:12:32.623Z,1013.46
2023-02-02T06:13:32.614Z,1013.46
2023-02-02T06:14:32.600Z,1013.42
2023-02-02T06:15:32.621Z,1013.37
2023-02-02T06:16:32.586Z,1013.38
2023-02-02T06:17:32.584Z,1013.44
2023-02-02T06:18:32.761Z,1013.32
2023-02-02T06:19:32.549Z,1013.41
2023-02-02T06:20:32.536Z,1013.37
2023-02-02T06:21:32.551Z,1013.35
2023-02-02T06:22:32.512Z,1013.35
2023-02-02T06:23:32.506Z,1013.35
2023-02-02T06:24:32.491Z,1013.35
2023-02-02T06:25:32.487Z,1013.37
2023-02-02T06:26:32.527Z,1013.40
2023-02-02T06:27:32.468Z,1013.34
2023-02-02T06:28:32.456Z,1013.42
2023-02-02T06:29:32.702Z,1013.38
2023-02-02T06:30:32.543Z,1013.45
2023-02-02T06:31:32.591Z,1013.47
2023-02-02T06:32:32.404Z,1013.44
2023-02-02T06:33:32.397Z,1013.38
2023-02-02T06:34:32.394Z,1013.49
2023-02-02T06:35:32.387Z,1013.50
2023-02-02T06:36:32.378Z,1013.50
2023-02-02T06:37:32.354Z,1013.51
2023-02-02T06:38:32.342Z,1013.56
2023-02-02T06:39:32.335Z,1013.55
2023-02-02T06:40:32.316Z,1013.57
2023-02-02T06:41:32.320Z,1013.57
2023-02-02T06:42:32.295Z,1013.56
2023-02-02T06:43:32.287Z,1013.54
2023-02-02T06:44:32.272Z,1013.55
2023-02-02T06:45:32.270Z,1013.53
2023-02-02T06:46:32.304Z,1013.50
2023-02-02T06:47:32.254Z,1013.53
2023-02-02T06:48:32.235Z,1013.49
2023-02-02T06:49:32.230Z,1013.59
2023-02-02T06:50:32.206Z,1013.68
2023-02-02T06:51:32.211Z,1013.71
2023-02-02T06:52:32.183Z,1013.57
2023-02-02T06:53:32.181Z,1013.58
2023-02-02T06:54:32.164Z,1013.73
2023-02-02T06:55:32.165Z,1013.71
2023-02-02T06:56:32.165Z,1013.65
2023-02-02T06:57:32.383Z,1013.62
2023-02-02T06:58:32.132Z,1013.65
2023-02-02T06:59:32.120Z,1013.64
2023-02-02T07:00:32.103Z,1013.64
2023-02-02T07:01:32.124Z,1013.68
2023-02-02T07:02:32.108Z,1013.65
2023-02-02T07:03:32.073Z,1013.64
2023-02-02T07:04:32.060Z,1013.67
2023-02-02T07:05:32.275Z,1013.67
2023-02-02T07:06:32.047Z,1013.71
2023-02-02T07:07:32.029Z,1013.75
2023-02-02T07:08:32.013Z,1013.73
2023-02-02T07:09:32.006Z,1013.78
2023-02-02T07:11:09.440Z,1013.77
2023-02-02T07:11:33.372Z,1013.76
2023-02-02T07:12:31.972Z,1013.80
2023-02-02T07:13:31.973Z,1013.86
2023-02-02T07:14:31.950Z,1013.86
2023-02-02T07:15:31.939Z,1013.90
2023-02-02T07:16:31.935Z,1013.93
2023-02-02T07:17:31.927Z,1013.88
2023-02-02T07:18:31.911Z,1013.85
2023-02-02T07:19:31.906Z,1013.89
2023-02-02T07:20:31.885Z,1013.82
2023-02-02T07:21:31.877Z,1013.91
2023-02-02T07:22:31.869Z,1013.95
2023-02-02T07:23:31.853Z,1013.93
2023-02-02T07:24:31.858Z,1013.89
2023-02-02T07:25:31.829Z,1013.91
2023-02-02T07:26:31.928Z,1013.92
2023-02-02T07:27:31.820Z,1013.88
2023-02-02T07:28:31.796Z,1013.87
2023-02-02T07:29:31.789Z,1013.90
2023-02-02T07:30:31.832Z,1013.82
2023-02-02T07:31:33.555Z,1013.87
2023-02-02T07:32:31.764Z,1013.93
2023-02-02T07:33:32.424Z,1013.93
2023-02-02T07:34:31.750Z,1013.98
2023-02-02T07:35:32.989Z,1014.00
2023-02-02T07:36:31.726Z,1013.99
2023-02-02T07:37:32.748Z,1014.05
2023-02-02T07:38:31.683Z,1014.02
2023-02-02T07:39:31.679Z,1014.02
2023-02-02T07:40:31.702Z,1014.03
2023-02-02T07:41:31.661Z,1014.00
2023-02-02T07:42:31.649Z,1014.01
2023-02-02T07:43:31.652Z,1014.01
2023-02-02T07:44:31.617Z,1014.03
2023-02-02T07:45:31.618Z,1014.03
2023-02-02T07:46:31.621Z,1014.06
2023-02-02T07:47:31.600Z,1014.09
2023-02-02T07:48:31.578Z,1014.12
2023-02-02T07:49:31.579Z,1014.10
2023-02-02T07:50:31.565Z,1014.11
2023-02-02T07:51:31.581Z,1014.17
2023-02-02T07:52:31.554Z,1014.17
2023-02-02T07:53:31.528Z,1014.21
2023-02-02T07:54:31.512Z,1014.22
2023-02-02T07:55:31.818Z,1014.19
2023-02-02T07:56:31.485Z,1014.20
2023-02-02T07:57:31.491Z,1014.17
2023-02-02T07:58:31.469Z,1014.24
2023-02-02T07:59:32.514Z,1014.26
2023-02-02T08:00:31.476Z,1014.28
2023-02-02T08:01:31.452Z,1014.31
2023-02-02T08:02:31.462Z,1014.28
2023-02-02T08:03:31.422Z,1014.31
2023-02-02T08:04:31.415Z,1014.27
2023-02-02T08:05:31.398Z,1014.30
2023-02-02T08:06:31.378Z,1014.31
2023-02-02T08:07:31.382Z,1014.35
2023-02-02T08:08:31.357Z,1014.35
2023-02-02T08:09:31.358Z,1014.35
2023-02-02T08:10:31.339Z,1014.42
2023-02-02T08:11:31.330Z,1014.41
2023-02-02T08:12:31.322Z,1014.38
2023-02-02T08:13:31.310Z,1014.43
2023-02-02T08:14:31.293Z,1014.41
2023-02-02T08:15:31.292Z,1014.45
2023-02-02T08:16:31.347Z,1014.42
2023-02-02T08:17:31.290Z,1014.48
2023-02-02T08:18:31.250Z,1014.51
2023-02-02T08:19:31.242Z,1014.47
2023-02-02T08:20:31.241Z,1014.48
2023-02-02T08:21:31.229Z,1014.45
2023-02-02T08:22:31.223Z,1014.54
2023-02-02T08:23:31.211Z,1014.53
2023-02-02T08:24:31.180Z,1014.50
2023-02-02T08:25:31.178Z,1014.41
2023-02-02T08:26:31.223Z,1014.48
2023-02-02T08:27:31.204Z,1014.47
2023-02-02T08:28:31.209Z,1014.50
2023-02-02T08:29:31.154Z,1014.52
2023-02-02T08:30:31.241Z,1014.51
2023-02-02T08:31:31.163Z,1014.47
2023-02-02T08:32:31.137Z,1014.44
2023-02-02T08:33:32.544Z,1014.50
2023-02-02T08:34:31.074Z,1014.51
2023-02-02T08:35:31.099Z,1014.52
2023-02-02T08:36:31.063Z,1014.50
2023-02-02T08:37:31.043Z,1014.55
2023-02-02T08:38:31.038Z,1014.54
2023-02-02T08:39:31.037Z,1014.55
2023-02-02T08:40:31.068Z,1014.58
2023-02-02T08:41:31.003Z,1014.56
2023-02-02T08:42:30.996Z,1014.60
2023-02-02T08:43:31.046Z,1014.64
2023-02-02T08:45:01.377Z,1014.66
2023-02-02T08:46:09.201Z,1014.69
2023-02-02T08:46:30.961Z,1014.73
2023-02-02T08:47:30.942Z,1014.72
2023-02-02T08:48:30.926Z,1014.74
2023-02-02T08:49:30.918Z,1014.77
2023-02-02T08:50:30.901Z,1014.78
2023-02-02T08:51:30.906Z,1014.75
2023-02-02T08:52:30.890Z,1014.82
2023-02-02T08:53:30.917Z,1014.77
2023-02-02T08:54:30.854Z,1014.76
2023-02-02T08:55:30.903Z,1014.79
2023-02-02T08:56:30.847Z,1014.86
2023-02-02T08:57:30.830Z,1014.85
2023-02-02T08:58:30.830Z,1014.87
2023-02-02T08:59:30.809Z,1014.92
2023-02-02T09:00:30.912Z,1014.90
2023-02-02T09:01:30.816Z,1014.96
2023-02-02T09:02:30.836Z,1014.96
2023-02-02T09:03:30.778Z,1014.95
2023-02-02T09:04:30.748Z,1015.00
2023-02-02T09:05:30.742Z,1015.04
2023-02-02T09:06:30.748Z,1015.07
2023-02-02T09:07:30.715Z,1015.08
2023-02-02T09:08:30.797Z,1015.07
2023-02-02T09:09:30.692Z,1015.08
2023-02-02T09:10:30.688Z,1015.11
2023-02-02T09:11:30.671Z,1015.09
2023-02-02T09:12:30.661Z,1015.08
2023-02-02T09:13:30.655Z,1015.06
2023-02-02T09:14:30.644Z,1015.16
2023-02-02T09:15:30.623Z,1015.16
2023-02-02T09:16:30.755Z,1015.18
2023-02-02T09:17:30.616Z,1015.17
2023-02-02T09:18:30.604Z,1015.15
2023-02-02T09:19:30.585Z,1015.13
2023-02-02T09:20:30.588Z,1015.19
2023-02-02T09:21:30.621Z,1015.20
2023-02-02T09:22:30.549Z,1015.18
2023-02-02T09:23:30.568Z,1015.21
2023-02-02T09:24:30.536Z,1015.25
2023-02-02T09:25:30.527Z,1015.16
2023-02-02T09:26:30.553Z,1015.26
2023-02-02T09:27:30.508Z,1015.19
2023-02-02T09:28:30.502Z,1015.24
2023-02-02T09:29:30.479Z,1015.18
2023-02-02T09:30:30.474Z,1015.19
2023-02-02T09:31:30.495Z,1015.24
2023-02-02T09:32:30.454Z,1015.32
2023-02-02T09:33:30.441Z,1015.33
2023-02-02T09:34:30.430Z,1015.34
2023-02-02T09:35:30.415Z,1015.35
2023-02-02T09:36:30.400Z,1015.34
2023-02-02T09:37:30.393Z,1015.37
2023-02-02T09:38:30.373Z,1015.39
2023-02-02T09:39:30.383Z,1015.43
2023-02-02T09:40:30.368Z,1015.46
2023-02-02T09:41:30.354Z,1015.48
2023-02-02T09:42:30.338Z,1015.51
2023-02-02T09:43:30.333Z,1015.45
2023-02-02T09:44:30.333Z,1015.50
2023-02-02T09:45:30.300Z,1015.50
2023-02-02T09:46:30.289Z,1015.48
2023-02-02T09:47:30.284Z,1015.46
2023-02-02T09:48:30.268Z,1015.51
2023-02-02T09:49:30.324Z,1015.52
2023-02-02T09:50:30.256Z,1015.56
2023-02-02T09:51:30.237Z,1015.56
2023-02-02T09:52:30.233Z,1015.52
2023-02-02T09:53:30.216Z,1015.58
2023-02-02T09:54:30.217Z,1015.62
2023-02-02T09:55:30.202Z,1015.64
2023-02-02T09:56:30.181Z,1015.67
2023-02-02T09:57:30.174Z,1015.70
2023-02-02T09:58:30.158Z,1015.74
2023-02-02T09:59:30.172Z,1015.75
2023-02-02T10:00:30.132Z,1015.79
2023-02-02T10:01:30.244Z,1015.82
2023-02-02T10:02:30.121Z,1015.78
2023-02-02T10:03:30.173Z,1015.76
2023-02-02T10:04:30.102Z,1015.80
2023-02-02T10:05:30.091Z,1015.83
2023-02-02T10:06:30.070Z,1015.82
2023-02-02T10:07:30.064Z,1015.84
2023-02-02T10:08:34.942Z,1015.85
2023-02-02T10:09:30.063Z,1015.89
2023-02-02T10:10:30.041Z,1015.86
2023-02-02T10:11:30.020Z,1015.89
2023-02-02T10:12:30.019Z,1015.88
2023-02-02T10:13:30.021Z,1015.92
2023-02-02T10:14:30.048Z,1015.95
2023-02-02T10:15:30.039Z,1015.92
2023-02-02T10:16:29.976Z,1015.91
2023-02-02T10:17:29.955Z,1015.97
2023-02-02T10:18:29.941Z,1015.97
2023-02-02T10:19:29.940Z,1015.96
2023-02-02T10:20:29.917Z,1015.98
2023-02-02T10:21:29.931Z,1015.99
2023-02-02T10:22:29.898Z,1016.06
2023-02-02T10:23:29.895Z,1016.07
2023-02-02T10:24:29.897Z,1016.02
2023-02-02T10:25:29.868Z,1016.03
2023-02-02T10:26:29.874Z,1016.04
2023-02-02T10:27:29.843Z,1016.05
2023-02-02T10:28:29.830Z,1016.04
2023-02-02T10:29:40.065Z,1016.07
2023-02-02T10:30:29.824Z,1016.18
2023-02-02T10:31:29.968Z,1016.17
2023-02-02T10:32:29.789Z,1016.10
2023-02-02T10:33:29.782Z,1016.18
2023-02-02T10:34:29.769Z,1016.16
2023-02-02T10:35:29.767Z,1016.15
2023-02-02T10:36:29.742Z,1016.07
2023-02-02T10:37:29.749Z,1016.02
2023-02-02T10:38:29.720Z,1016.01
2023-02-02T10:39:29.785Z,1016.02
2023-02-02T10:40:29.714Z,1016.04
2023-02-02T10:41:29.694Z,1016.05
2023-02-02T10:42:29.677Z,1016.06
2023-02-02T10:43:29.738Z,1016.06
2023-02-02T10:44:29.659Z,1016.14
2023-02-02T10:45:29.662Z,1016.07
2023-02-02T10:46:29.669Z,1016.11
2023-02-02T10:47:29.631Z,1016.18
2023-02-02T10:48:29.645Z,1016.19
2023-02-02T10:49:29.623Z,1016.17
2023-02-02T10:50:29.622Z,1016.17
2023-02-02T10:51:29.597Z,1016.13
2023-02-02T10:52:29.595Z,1016.12
2023-02-02T10:53:29.578Z,1016.13
2023-02-02T10:54:29.545Z,1016.16
2023-02-02T10:55:29.551Z,1016.13
2023-02-02T10:56:29.528Z,1016.06
2023-02-02T10:57:29.519Z,1016.12
2023-02-02T10:58:29.525Z,1016.09
2023-02-02T10:59:29.497Z,1016.15
2023-02-02T11:00:29.826Z,1016.16
2023-02-02T11:01:29.567Z,1016.23
2023-02-02T11:02:29.494Z,1016.18
2023-02-02T11:03:29.458Z,1016.20
2023-02-02T11:04:29.451Z,1016.21
2023-02-02T11:05:29.442Z,1016.15
2023-02-02T11:06:29.433Z,1016.16
2023-02-02T11:07:29.407Z,1016.15
2023-02-02T11:08:29.394Z,1016.24
2023-02-02T11:09:29.392Z,1016.21
2023-02-02T11:10:29.382Z,1016.24
2023-02-02T11:11:29.381Z,1016.27
2023-02-02T11:12:29.347Z,1016.31
2023-02-02T11:13:29.341Z,1016.25
2023-02-02T11:14:29.329Z,1016.24
2023-02-02T11:15:29.321Z,1016.20
2023-02-02T11:16:41.614Z,1016.25
2023-02-02T11:17:29.306Z,1016.21
2023-02-02T11:18:29.292Z,1016.21
2023-02-02T11:19:29.277Z,1016.23
2023-02-02T11:20:29.284Z,1016.19
2023-02-02T11:21:29.273Z,1016.20
2023-02-02T11:22:29.247Z,1016.18
2023-02-02T11:23:29.240Z,1016.20
2023-02-02T11:24:29.241Z,1016.24
2023-02-02T11:25:29.225Z,1016.26
2023-02-02T11:26:29.251Z,1016.22
2023-02-02T11:27:29.190Z,1016.18
2023-02-02T11:28:29.172Z,1016.22
2023-02-02T11:29:29.181Z,1016.24
2023-02-02T11:30:29.196Z,1016.25
2023-02-02T11:31:29.282Z,1016.22
2023-02-02T11:32:29.142Z,1016.21
2023-02-02T11:33:29.131Z,1016.16
2023-02-02T11:34:29.115Z,1016.19
2023-02-02T11:35:29.111Z,1016.19
2023-02-02T11:36:29.099Z,1016.18
2023-02-02T11:37:29.097Z,1016.20
2023-02-02T11:38:29.080Z,1016.21
2023-02-02T11:39:29.065Z,1016.21
2023-02-02T11:40:29.258Z,1016.24
2023-02-02T11:41:29.050Z,1016.24
2023-02-02T11:42:29.033Z,1016.26
2023-02-02T11:43:29.018Z,1016.25
2023-02-02T11:44:29.000Z,1016.30
2023-02-02T11:45:28.996Z,1016.28
2023-02-02T11:46:29.166Z,1016.28
2023-02-02T11:47:28.973Z,1016.30
2023-02-02T11:48:28.969Z,1016.33
2023-02-02T11:49:28.947Z,1016.31
2023-02-02T11:50:28.953Z,1016.29
2023-02-02T11:51:28.941Z,1016.31
2023-02-02T11:52:30.689Z,1016.29
2023-02-02T11:53:28.924Z,1016.30
2023-02-02T11:54:28.896Z,1016.32
2023-02-02T11:55:28.907Z,1016.31
2023-02-02T11:56:28.891Z,1016.32
2023-02-02T11:57:28.908Z,1016.28
2023-02-02T11:58:28.857Z,1016.30
2023-02-02T11:59:28.844Z,1016.30
2023-02-02T12:00:28.843Z,1016.31
2023-02-02T12:01:28.828Z,1016.34
2023-02-02T12:02:28.804Z,1016.37
2023-02-02T12:03:28.796Z,1016.31
2023-02-02T12:04:29.185Z,1016.28
2023-02-02T12:05:28.780Z,1016.30